createdAt,value
2023-12-09T00:02:19.724Z,1.70
2023-12-09T00:04:46.554Z,1.70
2023-12-09T00:07:13.513Z,1.70
2023-12-09T00:09:40.391Z,1.70
2023-12-09T00:12:07.503Z,1.70
2023-12-09T00:14:34.364Z,1.70
2023-12-09T00:17:01.273Z,1.70
2023-12-09T00:19:28.297Z,1.70
2023-12-09T00:21:55.212Z,1.80
2023-12-09T00:24:23.434Z,1.70
2023-12-09T00:26:50.766Z,1.70
2023-12-09T00:29:17.626Z,1.80
2023-12-09T00:31:44.479Z,1.80
2023-12-09T00:34:11.425Z,1.80
2023-12-09T00:36:40.684Z,1.80
2023-12-09T00:39:07.594Z,1.70
2023-12-09T00:41:34.439Z,1.70
2023-12-09T00:44:01.266Z,1.80
2023-12-09T00:46:28.198Z,1.80
2023-12-09T00:48:55.291Z,1.80
2023-12-09T00:51:22.317Z,1.80
2023-12-09T00:53:49.174Z,1.80
2023-12-09T00:56:16.039Z,1.80
2023-12-09T00:58:59.947Z,1.80
2023-12-09T01:01:26.877Z,1.80
2023-12-09T01:03:53.854Z,1.80
2023-12-09T01:06:20.931Z,1.80
2023-12-09T01:08:47.814Z,1.80
2023-12-09T01:11:14.620Z,1.80
2023-12-09T01:13:41.480Z,1.70
2023-12-09T01:16:08.827Z,1.80
2023-12-09T01:18:35.920Z,1.80
2023-12-09T01:21:03.002Z,1.80
2023-12-09T01:23:29.924Z,1.70
2023-12-09T01:25:56.857Z,1.70
2023-12-09T01:28:23.726Z,1.70
2023-12-09T01:30:50.597Z,1.70
2023-12-09T01:33:17.519Z,1.80
2023-12-09T01:35:44.473Z,1.80
2023-12-09T01:38:11.310Z,1.70
2023-12-09T01:40:38.146Z,1.80
2023-12-09T01:43:10.448Z,1.80
2023-12-09T01:45:37.484Z,1.80
2023-12-09T01:48:05.749Z,1.80
2023-12-09T01:50:33.096Z,1.80
2023-12-09T01:53:00.098Z,1.70
2023-12-09T01:55:27.302Z,1.80
2023-12-09T01:57:54.453Z,1.80
2023-12-09T02:00:22.436Z,1.80
2023-12-09T02:02:49.884Z,1.80
2023-12-09T02:05:16.970Z,1.80
2023-12-09T02:07:44.153Z,1.80
2023-12-09T02:10:12.561Z,1.80
2023-12-09T02:12:53.069Z,1.80
2023-12-09T02:15:25.740Z,1.80
2023-12-09T02:18:03.200Z,1.80
2023-12-09T02:20:31.095Z,1.80
2023-12-09T02:23:08.599Z,1.90
2023-12-09T02:25:36.554Z,1.80
2023-12-09T02:28:27.606Z,1.80
2023-12-09T02:30:57.279Z,1.80
2023-12-09T02:33:25.841Z,1.80
2023-12-09T02:35:54.642Z,1.80
2023-12-09T02:38:22.645Z,1.80
2023-12-09T02:40:50.635Z,1.80
2023-12-09T02:43:18.050Z,1.80
2023-12-09T02:45:47.835Z,1.80
2023-12-09T02:48:15.010Z,1.80
2023-12-09T02:50:42.340Z,1.80
2023-12-09T02:53:09.229Z,1.80
2023-12-09T02:55:36.150Z,1.80
2023-12-09T02:58:02.992Z,1.80
2023-12-09T03:00:30.098Z,1.80
2023-12-09T03:02:57.129Z,1.80
2023-12-09T03:05:24.121Z,1.80
2023-12-09T03:07:51.049Z,1.80
2023-12-09T03:10:18.152Z,1.80
2023-12-09T03:12:45.561Z,1.70
2023-12-09T03:15:12.469Z,1.80
2023-12-09T03:17:40.563Z,1.70
2023-12-09T03:20:10.675Z,1.80
2023-12-09T03:22:37.590Z,1.80
2023-12-09T03:25:05.164Z,1.80
2023-12-09T03:27:32.098Z,1.70
2023-12-09T03:29:59.020Z,1.80
2023-12-09T03:32:26.150Z,1.80
2023-12-09T03:34:53.141Z,1.80
2023-12-09T03:37:20.429Z,1.80
2023-12-09T03:39:47.306Z,1.80
2023-12-09T03:42:14.209Z,1.80
2023-12-09T03:44:41.149Z,1.80
2023-12-09T03:47:14.912Z,1.80
2023-12-09T03:49:49.083Z,1.80
2023-12-09T03:52:18.652Z,1.80
2023-12-09T03:54:46.071Z,1.80
2023-12-09T03:57:14.644Z,1.80
2023-12-09T03:59:41.875Z,1.80
2023-12-09T04:02:08.909Z,1.70
2023-12-09T04:04:40.208Z,1.70
2023-12-09T04:07:07.313Z,1.70
2023-12-09T04:09:34.266Z,1.70
2023-12-09T04:12:01.624Z,1.80
2023-12-09T04:14:28.570Z,1.70
2023-12-09T04:16:55.864Z,1.70
2023-12-09T04:19:22.991Z,1.80
2023-12-09T04:21:49.978Z,1.70
2023-12-09T04:24:16.942Z,1.70
2023-12-09T04:26:44.081Z,1.70
2023-12-09T04:29:11.100Z,1.70
2023-12-09T04:31:37.947Z,1.70
2023-12-09T04:34:04.851Z,1.80
2023-12-09T04:36:31.796Z,1.70
2023-12-09T04:38:58.692Z,1.70
2023-12-09T04:41:25.879Z,1.70
2023-12-09T04:43:52.747Z,1.70
2023-12-09T04:46:19.624Z,1.70
2023-12-09T04:48:46.590Z,1.70
2023-12-09T04:51:13.522Z,1.70
2023-12-09T04:53:41.533Z,1.70
2023-12-09T04:56:09.441Z,1.80
2023-12-09T04:58:36.311Z,1.70
2023-12-09T05:01:03.348Z,1.70
2023-12-09T05:03:31.523Z,1.80
2023-12-09T05:05:58.569Z,1.70
2023-12-09T05:08:25.522Z,1.80
2023-12-09T05:10:52.360Z,1.80
2023-12-09T05:13:19.241Z,1.80
2023-12-09T05:15:46.287Z,1.70
2023-12-09T05:18:13.416Z,1.80
2023-12-09T05:20:40.513Z,1.80
2023-12-09T05:23:09.451Z,1.80
2023-12-09T05:25:36.657Z,1.70
2023-12-09T05:28:03.693Z,1.80
2023-12-09T05:30:30.634Z,1.80
2023-12-09T05:32:58.990Z,1.80
2023-12-09T05:35:26.087Z,1.80
2023-12-09T05:37:53.043Z,1.80
2023-12-09T05:40:20.012Z,1.80
2023-12-09T05:42:47.622Z,1.80
2023-12-09T05:45:14.681Z,1.80
2023-12-09T05:47:41.704Z,1.80
2023-12-09T05:50:10.810Z,1.80
2023-12-09T05:52:37.742Z,1.80
2023-12-09T05:55:05.052Z,1.80
2023-12-09T05:57:31.973Z,1.70
2023-12-09T05:59:59.496Z,1.80
2023-12-09T06:02:26.669Z,1.70
2023-12-09T06:04:53.696Z,1.80
2023-12-09T06:07:20.585Z,1.70
2023-12-09T06:09:47.501Z,1.70
2023-12-09T06:12:14.458Z,1.70
2023-12-09T06:14:43.337Z,1.70
2023-12-09T06:17:10.323Z,1.70
2023-12-09T06:19:37.308Z,1.60
2023-12-09T06:22:04.362Z,1.70
2023-12-09T06:24:31.266Z,1.70
2023-12-09T06:26:58.316Z,1.70
2023-12-09T06:29:25.304Z,1.60
2023-12-09T06:31:52.154Z,1.70
2023-12-09T06:34:19.151Z,1.60
2023-12-09T06:36:46.081Z,1.60
2023-12-09T06:39:13.051Z,1.60
2023-12-09T06:41:40.924Z,1.60
2023-12-09T06:44:07.925Z,1.50
2023-12-09T06:46:39.148Z,1.50
2023-12-09T06:49:07.050Z,1.50
2023-12-09T06:51:34.661Z,1.50
2023-12-09T06:54:01.903Z,1.50
2023-12-09T06:56:28.840Z,1.50
2023-12-09T06:58:55.658Z,1.40
2023-12-09T07:01:29.382Z,1.40
2023-12-09T07:03:56.815Z,1.50
2023-12-09T07:06:24.439Z,1.40
2023-12-09T07:08:52.046Z,1.40
2023-12-09T07:11:19.467Z,1.40
2023-12-09T07:13:46.825Z,1.40
2023-12-09T07:16:14.372Z,1.40
2023-12-09T07:18:46.908Z,1.40
2023-12-09T07:21:14.580Z,1.40
2023-12-09T07:23:41.726Z,1.40
2023-12-09T07:26:08.579Z,1.40
2023-12-09T07:28:36.203Z,1.40
2023-12-09T07:31:03.949Z,1.40
2023-12-09T07:33:30.895Z,1.40
2023-12-09T07:35:57.835Z,1.40
2023-12-09T07:38:24.690Z,1.40
2023-12-09T07:40:52.341Z,1.40
2023-12-09T07:43:19.593Z,1.40
2023-12-09T07:45:46.524Z,1.30
2023-12-09T07:48:13.621Z,1.40
2023-12-09T07:50:40.759Z,1.30
2023-12-09T07:53:07.683Z,1.30
2023-12-09T07:55:34.594Z,1.30
2023-12-09T07:58:01.766Z,1.30
2023-12-09T08:00:28.852Z,1.30
2023-12-09T08:02:56.076Z,1.30
2023-12-09T08:05:24.886Z,1.30
2023-12-09T08:07:54.708Z,1.30
2023-12-09T08:10:21.551Z,1.30
2023-12-09T08:12:48.510Z,1.30
2023-12-09T08:15:15.503Z,1.40
2023-12-09T08:17:42.427Z,1.30
2023-12-09T08:20:10.380Z,1.30
2023-12-09T08:22:39.992Z,1.30
2023-12-09T08:25:14.086Z,1.30
2023-12-09T08:27:41.086Z,1.30
2023-12-09T08:30:12.148Z,1.30
2023-12-09T08:32:42.700Z,1.30
2023-12-09T08:35:12.245Z,1.30
2023-12-09T08:37:39.771Z,1.30
2023-12-09T08:40:11.819Z,1.30
2023-12-09T08:42:43.619Z,1.30
2023-12-09T08:45:16.379Z,1.30
2023-12-09T08:47:45.568Z,1.30
2023-12-09T08:50:22.038Z,1.30
2023-12-09T08:52:53.241Z,1.30
2023-12-09T08:55:20.313Z,1.30
2023-12-09T08:57:47.520Z,1.30
2023-12-09T09:00:17.277Z,1.30
2023-12-09T09:02:44.318Z,1.30
2023-12-09T09:05:11.475Z,1.40
2023-12-09T09:07:41.443Z,1.40
2023-12-09T09:10:09.308Z,1.40
2023-12-09T09:12:36.363Z,1.30
2023-12-09T09:15:07.085Z,1.40
2023-12-09T09:17:38.525Z,1.40
2023-12-09T09:20:06.744Z,1.40
2023-12-09T09:22:34.542Z,1.40
2023-12-09T09:25:02.178Z,1.40
2023-12-09T09:27:29.543Z,1.50
2023-12-09T09:29:56.895Z,1.40
2023-12-09T09:32:24.455Z,1.50
2023-12-09T09:34:51.780Z,1.60
2023-12-09T09:37:18.839Z,1.60
2023-12-09T09:39:45.854Z,1.50
2023-12-09T09:42:35.763Z,1.50
2023-12-09T09:45:24.362Z,1.50
2023-12-09T09:47:56.212Z,1.50
2023-12-09T09:50:27.656Z,1.50
2023-12-09T09:52:55.122Z,1.50
2023-12-09T09:55:26.516Z,1.50
2023-12-09T09:57:54.124Z,1.60
2023-12-09T10:00:22.861Z,1.60
2023-12-09T10:02:56.468Z,1.50
2023-12-09T10:05:24.679Z,1.60
2023-12-09T10:07:53.192Z,1.50
2023-12-09T10:10:20.090Z,1.50
2023-12-09T10:12:47.111Z,1.50
2023-12-09T10:15:14.207Z,1.50
2023-12-09T10:17:41.880Z,1.50
2023-12-09T10:20:10.455Z,1.40
2023-12-09T10:22:39.164Z,1.50
2023-12-09T10:25:06.561Z,1.50
2023-12-09T10:27:34.387Z,1.50
2023-12-09T10:30:02.098Z,1.50
2023-12-09T10:32:29.729Z,1.50
2023-12-09T10:34:57.472Z,1.60
2023-12-09T10:37:25.077Z,1.60
2023-12-09T10:39:53.068Z,1.60
2023-12-09T10:42:20.297Z,1.60
2023-12-09T10:44:48.658Z,1.50
2023-12-09T10:47:15.530Z,1.50
2023-12-09T10:49:42.495Z,1.50
2023-12-09T10:52:09.474Z,1.50
2023-12-09T10:54:36.340Z,1.60
2023-12-09T10:57:04.489Z,1.60
2023-12-09T10:59:33.569Z,1.60
2023-12-09T11:02:01.430Z,1.60
2023-12-09T11:04:29.407Z,1.70
2023-12-09T11:07:03.259Z,1.60
2023-12-09T11:09:33.913Z,1.60
2023-12-09T11:12:01.065Z,1.70
2023-12-09T11:14:28.764Z,1.70
2023-12-09T11:17:03.049Z,1.60
2023-12-09T11:19:30.693Z,1.60
2023-12-09T11:21:57.657Z,1.60
2023-12-09T11:24:31.647Z,1.60
2023-12-09T11:26:59.098Z,1.60
2023-12-09T11:29:26.531Z,1.50
2023-12-09T11:31:54.632Z,1.50
2023-12-09T11:34:25.142Z,1.50
2023-12-09T11:36:53.880Z,1.50
2023-12-09T11:39:23.430Z,1.50
2023-12-09T11:41:51.308Z,1.40
2023-12-09T11:44:18.411Z,1.40
2023-12-09T11:46:47.704Z,1.40
2023-12-09T11:49:15.322Z,1.40
2023-12-09T11:51:42.401Z,1.40
2023-12-09T11:54:10.774Z,1.40
2023-12-09T11:56:39.265Z,1.40
2023-12-09T11:59:06.920Z,1.30
2023-12-09T12:01:35.111Z,1.40
2023-12-09T12:04:02.406Z,1.30
2023-12-09T12:06:29.613Z,1.40
2023-12-09T12:08:56.855Z,1.40
2023-12-09T12:11:25.218Z,1.40
2023-12-09T12:13:53.651Z,1.40
2023-12-09T12:16:21.492Z,1.40
2023-12-09T12:18:49.519Z,1.50
2023-12-09T12:21:17.312Z,1.50
2023-12-09T12:23:44.605Z,1.50
2023-12-09T12:26:14.128Z,1.50
2023-12-09T12:28:41.278Z,1.50
2023-12-09T12:31:12.597Z,1.50
2023-12-09T12:33:41.133Z,1.50
2023-12-09T12:36:09.391Z,1.40
2023-12-09T12:38:36.588Z,1.40
2023-12-09T12:41:03.986Z,1.40
2023-12-09T12:43:32.667Z,1.30
2023-12-09T12:46:01.223Z,1.30
2023-12-09T12:48:29.084Z,1.40
2023-12-09T12:50:56.786Z,1.30
2023-12-09T12:53:26.189Z,1.30
2023-12-09T12:55:55.905Z,1.30
2023-12-09T12:58:23.959Z,1.30
2023-12-09T13:00:53.287Z,1.30
2023-12-09T13:03:20.578Z,1.30
2023-12-09T13:05:48.074Z,1.30
2023-12-09T13:08:15.079Z,1.40
2023-12-09T13:10:42.018Z,1.30
2023-12-09T13:13:08.948Z,1.30
2023-12-09T13:15:35.972Z,1.30
2023-12-09T13:18:03.256Z,1.30
2023-12-09T13:20:30.638Z,1.30
2023-12-09T13:22:58.178Z,1.40
2023-12-09T13:25:25.183Z,1.30
2023-12-09T13:27:52.231Z,1.30
2023-12-09T13:30:19.381Z,1.30
2023-12-09T13:32:47.011Z,1.30
2023-12-09T13:35:15.813Z,1.30
2023-12-09T13:37:44.164Z,1.30
2023-12-09T13:40:12.769Z,1.30
2023-12-09T13:42:40.209Z,1.30
2023-12-09T13:45:07.813Z,1.30
2023-12-09T13:47:34.937Z,1.30
2023-12-09T13:50:02.103Z,1.30
2023-12-09T13:52:31.945Z,1.30
2023-12-09T13:55:00.158Z,1.30
2023-12-09T13:57:27.328Z,1.20
2023-12-09T13:59:54.639Z,1.20
2023-12-09T14:02:21.706Z,1.20
2023-12-09T14:04:49.302Z,1.20
2023-12-09T14:07:16.755Z,1.20
2023-12-09T14:09:43.837Z,1.20
2023-12-09T14:12:11.134Z,1.20
2023-12-09T14:14:38.031Z,1.20
2023-12-09T14:17:06.427Z,1.10
2023-12-09T14:19:33.479Z,1.20
2023-12-09T14:22:00.505Z,1.10
2023-12-09T14:24:27.473Z,1.10
2023-12-09T14:26:54.738Z,1.10
2023-12-09T14:29:21.657Z,1.10
2023-12-09T14:31:48.551Z,1.10
2023-12-09T14:34:15.824Z,1.10
2023-12-09T14:36:44.095Z,1.10
2023-12-09T14:39:11.788Z,1.10
2023-12-09T14:41:41.008Z,1.10
2023-12-09T14:44:09.247Z,1.10
2023-12-09T14:46:36.763Z,1.10
2023-12-09T14:49:04.785Z,1.10
2023-12-09T14:51:40.779Z,1.20
2023-12-09T14:54:16.473Z,1.10
2023-12-09T14:56:48.216Z,1.10
2023-12-09T14:59:16.474Z,1.20
2023-12-09T15:01:43.498Z,1.20
2023-12-09T15:04:10.564Z,1.20
2023-12-09T15:06:37.696Z,1.10
2023-12-09T15:09:05.047Z,1.10
2023-12-09T15:11:31.997Z,1.10
2023-12-09T15:13:58.885Z,1.10
2023-12-09T15:16:26.035Z,1.10
2023-12-09T15:18:53.082Z,1.10
2023-12-09T15:21:21.035Z,1.10
2023-12-09T15:23:48.029Z,1.10
2023-12-09T15:26:15.333Z,1.10
2023-12-09T15:28:42.297Z,1.10
2023-12-09T15:31:09.262Z,1.00
2023-12-09T15:33:36.671Z,1.10
2023-12-09T15:36:04.326Z,1.10
2023-12-09T15:38:32.248Z,1.10
2023-12-09T15:40:59.134Z,1.10
2023-12-09T15:43:26.011Z,1.00
2023-12-09T15:45:55.979Z,1.10
2023-12-09T15:48:26.854Z,1.00
2023-12-09T15:50:54.045Z,1.00
2023-12-09T15:53:20.966Z,1.00
2023-12-09T15:55:48.208Z,1.00
2023-12-09T15:58:15.533Z,0.90
2023-12-09T16:00:42.740Z,0.90
2023-12-09T16:03:16.474Z,1.00
2023-12-09T16:05:44.063Z,1.00
2023-12-09T16:08:11.256Z,0.90
2023-12-09T16:10:38.155Z,0.90
2023-12-09T16:13:05.402Z,0.90
2023-12-09T16:15:32.482Z,0.90
2023-12-09T16:17:59.529Z,1.00
2023-12-09T16:20:26.702Z,0.90
2023-12-09T16:22:53.577Z,0.90
2023-12-09T16:25:20.570Z,0.90
2023-12-09T16:27:47.769Z,0.90
2023-12-09T16:30:15.216Z,0.90
2023-12-09T16:32:42.826Z,0.90
2023-12-09T16:35:10.278Z,0.90
2023-12-09T16:37:37.497Z,0.90
2023-12-09T16:40:05.000Z,0.90
2023-12-09T16:42:32.406Z,0.90
2023-12-09T16:44:59.984Z,0.90
2023-12-09T16:47:28.789Z,0.90
2023-12-09T16:49:55.755Z,0.90
2023-12-09T16:52:22.652Z,0.90
2023-12-09T16:54:49.576Z,0.90
2023-12-09T16:57:16.925Z,0.90
2023-12-09T16:59:43.968Z,0.90
2023-12-09T17:02:10.966Z,0.90
2023-12-09T17:04:38.087Z,0.90
2023-12-09T17:07:05.104Z,0.90
2023-12-09T17:09:32.346Z,0.90
2023-12-09T17:11:59.306Z,0.90
2023-12-09T17:14:26.857Z,0.90
2023-12-09T17:16:55.203Z,0.90
2023-12-09T17:19:22.505Z,0.80
2023-12-09T17:21:49.678Z,0.80
2023-12-09T17:24:16.614Z,0.90
2023-12-09T17:26:43.580Z,0.80
2023-12-09T17:29:10.475Z,0.80
2023-12-09T17:31:40.068Z,0.80
2023-12-09T17:34:10.634Z,0.80
2023-12-09T17:36:37.817Z,0.80
2023-12-09T17:39:07.434Z,0.80
2023-12-09T17:41:34.368Z,0.80
2023-12-09T17:44:01.308Z,0.80
2023-12-09T17:46:28.199Z,0.80
2023-12-09T17:48:55.672Z,0.80
2023-12-09T17:51:22.872Z,0.80
2023-12-09T17:53:49.914Z,0.80
2023-12-09T17:56:16.833Z,0.80
2023-12-09T17:58:43.716Z,0.80
2023-12-09T18:01:10.753Z,0.80
2023-12-09T18:03:37.748Z,0.80
2023-12-09T18:06:05.483Z,0.80
2023-12-09T18:08:34.267Z,0.80
2023-12-09T18:11:01.196Z,0.80
2023-12-09T18:13:28.213Z,0.80
2023-12-09T18:15:55.191Z,0.80
2023-12-09T18:18:22.495Z,0.80
2023-12-09T18:20:49.585Z,0.80
2023-12-09T18:23:16.460Z,0.80
2023-12-09T18:25:43.436Z,0.80
2023-12-09T18:28:10.336Z,0.80
2023-12-09T18:30:38.247Z,0.80
2023-12-09T18:33:05.414Z,0.80
2023-12-09T18:35:32.502Z,0.70
2023-12-09T18:38:00.407Z,0.70
2023-12-09T18:40:27.744Z,0.70
2023-12-09T18:42:54.769Z,0.70
2023-12-09T18:45:21.849Z,0.80
2023-12-09T18:47:51.281Z,0.80
2023-12-09T18:50:18.304Z,0.80
2023-12-09T18:52:45.189Z,0.80
2023-12-09T18:55:12.124Z,0.80
2023-12-09T18:57:43.862Z,0.80
2023-12-09T19:00:11.540Z,0.80
2023-12-09T19:02:38.624Z,0.80
2023-12-09T19:05:05.976Z,0.80
2023-12-09T19:07:33.042Z,0.80
2023-12-09T19:10:04.846Z,0.80
2023-12-09T19:12:33.067Z,0.80
2023-12-09T19:15:02.984Z,0.80
2023-12-09T19:17:30.137Z,0.80
2023-12-09T19:19:57.221Z,0.80
2023-12-09T19:22:24.305Z,0.80
2023-12-09T19:24:51.259Z,0.90
2023-12-09T19:27:18.281Z,0.90
2023-12-09T19:29:45.202Z,0.90
2023-12-09T19:32:13.546Z,0.90
2023-12-09T19:34:41.269Z,0.90
2023-12-09T19:37:11.069Z,0.90
2023-12-09T19:39:37.996Z,0.90
2023-12-09T19:42:05.398Z,0.90
2023-12-09T19:44:32.373Z,0.90
2023-12-09T19:46:59.714Z,0.90
2023-12-09T19:49:26.854Z,0.90
2023-12-09T19:51:53.874Z,0.90
2023-12-09T19:54:20.793Z,0.90
2023-12-09T19:56:47.707Z,0.90
2023-12-09T19:59:15.064Z,0.90
2023-12-09T20:01:42.067Z,0.90
2023-12-09T20:04:09.087Z,0.90
2023-12-09T20:06:36.592Z,0.90
2023-12-09T20:09:05.108Z,1.00
2023-12-09T20:11:32.139Z,0.90
2023-12-09T20:13:59.332Z,0.90
2023-12-09T20:16:26.426Z,0.90
2023-12-09T20:18:53.431Z,0.90
2023-12-09T20:21:20.526Z,0.90
2023-12-09T20:23:47.449Z,1.00
2023-12-09T20:26:14.365Z,0.90
2023-12-09T20:28:43.728Z,0.90
2023-12-09T20:31:13.923Z,0.90
2023-12-09T20:33:41.650Z,0.90
2023-12-09T20:36:09.208Z,0.90
2023-12-09T20:38:36.614Z,1.00
2023-12-09T20:41:03.870Z,1.00
2023-12-09T20:43:32.419Z,0.90
2023-12-09T20:46:02.347Z,0.90
2023-12-09T20:48:29.409Z,0.90
2023-12-09T20:50:56.581Z,1.00
2023-12-09T20:53:23.690Z,1.00
2023-12-09T20:55:50.664Z,1.00
2023-12-09T20:58:17.615Z,1.00
2023-12-09T21:00:44.594Z,0.90
2023-12-09T21:03:12.004Z,1.00
2023-12-09T21:05:39.022Z,1.00
2023-12-09T21:08:05.897Z,0.90
2023-12-09T21:10:32.794Z,0.90
2023-12-09T21:12:59.747Z,0.90
2023-12-09T21:15:27.366Z,0.90
2023-12-09T21:17:54.406Z,0.90
2023-12-09T21:20:21.415Z,1.00
2023-12-09T21:22:48.372Z,1.00
2023-12-09T21:25:15.504Z,0.90
2023-12-09T21:27:43.869Z,0.90
2023-12-09T21:30:11.190Z,1.00
2023-12-09T21:32:38.335Z,1.00
2023-12-09T21:35:06.267Z,1.00
2023-12-09T21:37:33.211Z,0.90
2023-12-09T21:40:00.831Z,1.00
2023-12-09T21:42:28.547Z,0.90
2023-12-09T21:44:57.680Z,1.00
2023-12-09T21:47:28.583Z,0.90
2023-12-09T21:49:56.071Z,1.00
2023-12-09T21:52:23.422Z,0.90
2023-12-09T21:54:50.695Z,1.00
2023-12-09T21:57:17.793Z,0.90
2023-12-09T21:59:44.869Z,0.90
2023-12-09T22:02:11.754Z,0.90
2023-12-09T22:04:38.771Z,0.90
2023-12-09T22:07:05.890Z,0.90
2023-12-09T22:09:32.836Z,0.90
2023-12-09T22:11:59.751Z,0.90
2023-12-09T22:14:26.743Z,0.90
2023-12-09T22:16:54.297Z,0.90
2023-12-09T22:19:21.250Z,0.90
2023-12-09T22:21:48.178Z,0.90
2023-12-09T22:24:15.162Z,0.90
2023-12-09T22:26:43.411Z,0.90
2023-12-09T22:29:10.668Z,0.90
2023-12-09T22:31:44.953Z,0.90
2023-12-09T22:34:12.176Z,0.90
2023-12-09T22:36:39.720Z,0.90
2023-12-09T22:39:12.938Z,0.90
2023-12-09T22:41:40.056Z,0.90
2023-12-09T22:44:07.204Z,0.90
2023-12-09T22:46:34.542Z,0.90
2023-12-09T22:49:02.237Z,0.90
2023-12-09T22:51:29.580Z,0.90
2023-12-09T22:53:56.587Z,0.90
2023-12-09T22:56:25.632Z,0.90
2023-12-09T22:58:55.433Z,0.90
2023-12-09T23:01:33.972Z,0.90
2023-12-09T23:04:04.181Z,0.90
2023-12-09T23:06:31.308Z,0.90
2023-12-09T23:08:58.683Z,0.90
2023-12-09T23:11:25.713Z,0.90
2023-12-09T23:13:52.611Z,0.90
2023-12-09T23:16:19.631Z,0.90
2023-12-09T23:18:46.728Z,0.90
2023-12-09T23:21:13.917Z,0.90
2023-12-09T23:23:40.842Z,0.90
2023-12-09T23:26:07.799Z,0.90
2023-12-09T23:28:34.799Z,0.90
2023-12-09T23:31:03.601Z,0.90
2023-12-09T23:33:32.379Z,0.90
2023-12-09T23:35:59.617Z,0.90
2023-12-09T23:38:26.736Z,0.90
2023-12-09T23:40:53.687Z,0.90
2023-12-09T23:43:20.620Z,0.90
2023-12-09T23:45:47.563Z,0.90
2023-12-09T23:48:18.986Z,0.90
2023-12-09T23:50:46.096Z,0.90
2023-12-09T23:53:17.215Z,1.00
2023-12-09T23:55:44.196Z,0.90
2023-12-09T23:58:11.084Z,0.90
